Time;durP1;ratioP1;P1;durP2;ratioP2;P2;SDS_P1;SDS_P2;PMS_P1;PMS_P2;Temp;Humidity;BMP_temperature;BMP_pressure;BME280_temperature;BME280_humidity;BME280_pressure;Samples;Min_cycle;Max_cycle;Signal;HPM_P1;HPM_P2
2022/04/09 00:02:22;;;;;;;7.37;2.43;;;;;;;;;;5034158;28;20207;-75
2022/04/09 00:04:51;;;;;;;6.60;2.50;;;;;;;;;;5033135;28;20216;-75
2022/04/09 00:07:19;;;;;;;7.87;2.90;;;;;;;;;;5032516;28;20230;-75
2022/04/09 00:09:47;;;;;;;5.97;2.47;;;;;;;;;;5033394;28;20215;-75
2022/04/09 00:12:16;;;;;;;5.10;2.47;;;;;;;;;;5032588;28;20199;-74
2022/04/09 00:14:44;;;;;;;7.40;2.67;;;;;;;;;;5032736;28;20727;-75
2022/04/09 00:17:12;;;;;;;7.63;2.33;;;;;;;;;;5032335;28;20219;-74
2022/04/09 00:19:43;;;;;;;6.93;2.10;;;;;;;;;;5033065;28;20239;-75
2022/04/09 00:22:11;;;;;;;7.20;2.90;;;;;;;;;;5032321;28;20196;-75
2022/04/09 00:24:40;;;;;;;7.10;2.77;;;;;;;;;;5024061;28;20254;-74
2022/04/09 00:27:08;;;;;;;8.70;2.67;;;;;;;;;;5032722;28;20227;-75
2022/04/09 00:29:36;;;;;;;8.10;2.67;;;;;;;;;;5019253;28;20207;-74
2022/04/09 00:32:05;;;;;;;9.83;2.43;;;;;;;;;;5026826;28;20274;-74
2022/04/09 00:34:34;;;;;;;9.43;2.70;;;;;;;;;;5024921;28;20201;-75
2022/04/09 00:37:04;;;;;;;11.57;2.80;;;;;;;;;;5021254;28;20221;-75
2022/04/09 00:39:32;;;;;;;6.90;2.53;;;;;;;;;;5026458;28;20339;-74
2022/04/09 00:42:00;;;;;;;6.13;2.50;;;;;;;;;;5027874;28;20259;-75
2022/04/09 00:44:31;;;;;;;8.10;2.60;;;;;;;;;;5032453;28;20204;-74
2022/04/09 00:46:59;;;;;;;10.10;3.10;;;;;;;;;;5030890;28;20682;-75
2022/04/09 00:49:28;;;;;;;8.57;2.47;;;;;;;;;;5023882;28;20668;-74
2022/04/09 00:51:57;;;;;;;7.53;2.77;;;;;;;;;;5025996;28;20199;-75
2022/04/09 00:54:29;;;;;;;6.10;2.63;;;;;;;;;;5032493;28;20679;-75
2022/04/09 00:57:01;;;;;;;5.87;2.37;;;;;;;;;;5033454;28;20219;-75
2022/04/09 00:59:30;;;;;;;6.87;2.40;;;;;;;;;;5032097;28;20202;-75
2022/04/09 01:01:59;;;;;;;7.03;2.73;;;;;;;;;;5031727;28;20278;-75
2022/04/09 01:04:28;;;;;;;12.00;2.67;;;;;;;;;;5031810;28;20214;-74
2022/04/09 01:06:57;;;;;;;8.33;2.43;;;;;;;;;;5030200;28;20285;-75
2022/04/09 01:09:27;;;;;;;8.47;2.50;;;;;;;;;;5016690;28;20689;-74
2022/04/09 01:11:56;;;;;;;12.03;3.27;;;;;;;;;;5025997;28;20206;-74
2022/04/09 01:14:24;;;;;;;5.70;2.33;;;;;;;;;;5023767;28;20214;-74
2022/04/09 01:16:52;;;;;;;8.43;2.63;;;;;;;;;;5030003;28;20221;-75
2022/04/09 01:19:21;;;;;;;9.63;2.70;;;;;;;;;;5031994;28;20221;-74
2022/04/09 01:21:49;;;;;;;8.10;3.13;;;;;;;;;;5024917;28;20578;-75
2022/04/09 01:24:20;;;;;;;7.73;2.90;;;;;;;;;;5031266;28;20623;-75
2022/04/09 01:26:48;;;;;;;7.83;3.10;;;;;;;;;;5024984;28;20701;-74
2022/04/09 01:29:17;;;;;;;9.73;2.97;;;;;;;;;;5018795;28;20672;-75
2022/04/09 01:31:45;;;;;;;8.23;3.10;;;;;;;;;;5022623;28;20203;-75
2022/04/09 01:34:15;;;;;;;10.37;2.90;;;;;;;;;;5026442;28;20295;-75
2022/04/09 01:36:43;;;;;;;8.03;2.80;;;;;;;;;;5025852;28;20216;-75
2022/04/09 01:39:11;;;;;;;7.60;2.73;;;;;;;;;;5031702;28;20207;-75
2022/04/09 01:41:41;;;;;;;9.70;2.83;;;;;;;;;;5031314;28;20297;-75
2022/04/09 01:44:10;;;;;;;8.30;2.37;;;;;;;;;;5031020;28;20200;-75
2022/04/09 01:46:44;;;;;;;12.17;3.13;;;;;;;;;;5021911;28;20232;-74
2022/04/09 01:49:13;;;;;;;7.60;2.77;;;;;;;;;;5027629;28;20197;-74
2022/04/09 01:51:42;;;;;;;13.33;3.87;;;;;;;;;;5034254;28;20259;-74
2022/04/09 01:54:10;;;;;;;9.90;3.40;;;;;;;;;;5029124;28;20586;-74
2022/04/09 01:56:38;;;;;;;8.10;2.20;;;;;;;;;;5029549;28;20723;-75
2022/04/09 01:59:08;;;;;;;9.53;2.90;;;;;;;;;;5020477;28;20201;-75
2022/04/09 02:01:37;;;;;;;10.63;2.93;;;;;;;;;;5027725;28;20220;-75
2022/04/09 02:04:05;;;;;;;10.27;3.17;;;;;;;;;;5021957;28;20227;-76
2022/04/09 02:06:34;;;;;;;8.40;3.30;;;;;;;;;;5019070;28;20220;-75
2022/04/09 02:09:04;;;;;;;9.97;3.10;;;;;;;;;;5027041;28;20210;-75
2022/04/09 02:11:32;;;;;;;10.77;3.40;;;;;;;;;;5029754;28;20211;-74
2022/04/09 02:14:01;;;;;;;8.20;3.30;;;;;;;;;;5018871;28;20211;-74
2022/04/09 02:16:30;;;;;;;11.83;3.83;;;;;;;;;;5023809;28;20258;-75
2022/04/09 02:18:59;;;;;;;11.57;3.10;;;;;;;;;;5016980;28;20219;-74
2022/04/09 02:21:27;;;;;;;12.43;3.33;;;;;;;;;;5022860;28;20204;-76
2022/04/09 02:23:58;;;;;;;12.83;3.37;;;;;;;;;;5025511;28;20202;-75
2022/04/09 02:26:28;;;;;;;12.33;3.23;;;;;;;;;;5032844;28;20725;-75
2022/04/09 02:28:58;;;;;;;9.67;3.40;;;;;;;;;;5034961;28;20294;-75
2022/04/09 02:31:28;;;;;;;6.90;3.10;;;;;;;;;;5023255;28;20211;-75
2022/04/09 02:33:58;;;;;;;8.07;3.00;;;;;;;;;;5034198;28;20220;-75
2022/04/09 02:36:28;;;;;;;10.17;3.30;;;;;;;;;;5014501;28;20868;-76
2022/04/09 02:38:56;;;;;;;11.80;3.30;;;;;;;;;;5023674;28;20201;-75
2022/04/09 02:41:25;;;;;;;7.53;2.77;;;;;;;;;;5033676;28;20205;-74
2022/04/09 02:43:53;;;;;;;9.97;2.97;;;;;;;;;;5019566;28;20664;-74
2022/04/09 02:46:22;;;;;;;7.67;3.20;;;;;;;;;;5030566;28;20209;-75
2022/04/09 02:48:50;;;;;;;8.60;3.30;;;;;;;;;;5019749;28;20220;-74
2022/04/09 02:51:20;;;;;;;9.67;3.37;;;;;;;;;;5030726;28;20216;-74
2022/04/09 02:53:48;;;;;;;8.73;2.97;;;;;;;;;;5028306;28;20200;-74
2022/04/09 02:56:17;;;;;;;12.00;3.40;;;;;;;;;;5017424;28;20676;-74
2022/04/09 02:58:45;;;;;;;6.47;3.20;;;;;;;;;;5032234;28;20203;-74
2022/04/09 03:01:14;;;;;;;8.37;3.10;;;;;;;;;;5020575;28;20212;-75
2022/04/09 03:03:42;;;;;;;11.93;3.27;;;;;;;;;;5034366;28;20617;-75
2022/04/09 03:06:11;;;;;;;11.03;3.43;;;;;;;;;;5033574;28;20640;-75
2022/04/09 03:08:41;;;;;;;13.33;3.40;;;;;;;;;;5025415;28;20224;-74
2022/04/09 03:11:09;;;;;;;9.87;3.20;;;;;;;;;;5030744;28;20211;-74
2022/04/09 03:13:38;;;;;;;10.37;2.97;;;;;;;;;;5034223;28;20261;-75
2022/04/09 03:16:06;;;;;;;10.13;3.17;;;;;;;;;;5034660;28;20215;-75
2022/04/09 03:18:35;;;;;;;10.30;3.43;;;;;;;;;;5034705;28;20228;-75
2022/04/09 03:21:03;;;;;;;11.60;3.50;;;;;;;;;;5028047;28;20210;-75
2022/04/09 03:23:32;;;;;;;10.97;3.27;;;;;;;;;;5023617;28;20208;-75
2022/04/09 03:26:01;;;;;;;7.90;3.10;;;;;;;;;;5033216;28;20205;-76
2022/04/09 03:28:30;;;;;;;9.47;2.87;;;;;;;;;;5020387;28;20232;-75
2022/04/09 03:31:01;;;;;;;8.40;2.80;;;;;;;;;;5026654;28;20255;-75
2022/04/09 03:33:30;;;;;;;9.20;3.13;;;;;;;;;;5030186;28;20570;-75
2022/04/09 03:35:58;;;;;;;8.50;2.90;;;;;;;;;;5024422;28;20236;-75
2022/04/09 03:38:27;;;;;;;12.30;3.37;;;;;;;;;;5029638;28;20216;-75
2022/04/09 03:40:55;;;;;;;10.87;3.00;;;;;;;;;;5028734;28;20202;-75
2022/04/09 03:43:44;;;;;;;5.87;2.87;;;;;;;;;;5033970;28;20199;-76
2022/04/09 03:46:14;;;;;;;7.60;2.90;;;;;;;;;;5028998;28;20204;-76
2022/04/09 03:48:43;;;;;;;4.13;2.70;;;;;;;;;;5022919;28;20223;-75
2022/04/09 03:51:12;;;;;;;9.83;3.43;;;;;;;;;;5028846;28;20254;-75
2022/04/09 03:53:40;;;;;;;9.40;3.47;;;;;;;;;;5025123;28;20213;-76
2022/04/09 03:56:09;;;;;;;11.23;3.43;;;;;;;;;;5025942;28;20693;-75
2022/04/09 03:58:37;;;;;;;7.13;3.10;;;;;;;;;;5024172;28;20197;-75
2022/04/09 04:01:06;;;;;;;11.80;3.57;;;;;;;;;;5027279;28;20254;-75
2022/04/09 04:03:36;;;;;;;6.33;3.20;;;;;;;;;;5026635;28;20265;-75
2022/04/09 04:06:05;;;;;;;7.87;3.23;;;;;;;;;;5032140;28;20203;-75
2022/04/09 04:08:33;;;;;;;9.70;3.40;;;;;;;;;;5023874;28;20220;-77
2022/04/09 04:11:02;;;;;;;5.17;2.83;;;;;;;;;;5026902;28;20200;-76
2022/04/09 04:13:32;;;;;;;8.60;3.47;;;;;;;;;;5031432;28;20200;-75
2022/04/09 04:16:01;;;;;;;8.50;3.13;;;;;;;;;;5027441;28;20208;-75
2022/04/09 04:18:30;;;;;;;7.20;3.40;;;;;;;;;;5023221;28;20232;-75
2022/04/09 04:20:59;;;;;;;8.97;3.20;;;;;;;;;;5026658;28;20203;-76
2022/04/09 04:23:28;;;;;;;9.20;3.33;;;;;;;;;;5013620;28;20652;-75
2022/04/09 04:25:56;;;;;;;8.17;2.77;;;;;;;;;;5027285;28;20205;-75
2022/04/09 04:28:25;;;;;;;10.53;2.93;;;;;;;;;;5023749;28;20225;-75
2022/04/09 04:30:53;;;;;;;9.50;3.20;;;;;;;;;;5025786;28;20202;-75
2022/04/09 04:33:22;;;;;;;12.70;4.03;;;;;;;;;;5025451;28;20217;-74
2022/04/09 04:35:50;;;;;;;7.33;3.13;;;;;;;;;;5032112;28;20267;-75
2022/04/09 04:38:20;;;;;;;6.63;3.30;;;;;;;;;;5025595;28;20268;-76
2022/04/09 04:40:48;;;;;;;13.37;3.50;;;;;;;;;;5024297;28;20204;-75
2022/04/09 04:43:17;;;;;;;6.97;3.33;;;;;;;;;;5032630;28;20608;-76
2022/04/09 04:45:45;;;;;;;6.93;3.30;;;;;;;;;;5016668;28;20665;-75
2022/04/09 04:48:14;;;;;;;10.33;3.67;;;;;;;;;;5032887;28;20330;-76
2022/04/09 04:50:48;;;;;;;7.00;3.13;;;;;;;;;;5024038;28;20203;-74
2022/04/09 04:53:17;;;;;;;9.17;3.80;;;;;;;;;;5017998;28;20201;-75
2022/04/09 04:55:46;;;;;;;9.93;3.40;;;;;;;;;;5027936;28;20220;-76
2022/04/09 04:58:18;;;;;;;10.73;3.83;;;;;;;;;;5021598;28;20225;-76
2022/04/09 05:00:46;;;;;;;9.40;4.03;;;;;;;;;;5030052;28;20201;-75
2022/04/09 05:03:15;;;;;;;13.17;3.73;;;;;;;;;;5032410;28;20229;-75
2022/04/09 05:05:44;;;;;;;6.80;3.70;;;;;;;;;;5032847;28;20261;-75
2022/04/09 05:08:12;;;;;;;9.80;3.23;;;;;;;;;;5032717;28;20281;-75
2022/04/09 05:10:41;;;;;;;8.00;3.97;;;;;;;;;;5030490;28;20219;-75
2022/04/09 05:13:10;;;;;;;9.90;2.97;;;;;;;;;;5023693;28;20609;-75
2022/04/09 05:15:39;;;;;;;13.37;3.33;;;;;;;;;;5018134;28;20655;-76
2022/04/09 05:18:07;;;;;;;10.50;3.40;;;;;;;;;;5026446;28;20221;-75
2022/04/09 05:20:36;;;;;;;7.90;3.57;;;;;;;;;;5023488;28;20208;-75
2022/04/09 05:23:04;;;;;;;9.27;3.50;;;;;;;;;;5035587;28;20631;-75
2022/04/09 05:25:32;;;;;;;11.90;3.37;;;;;;;;;;5032174;28;20623;-75
2022/04/09 05:28:03;;;;;;;11.73;3.80;;;;;;;;;;5035917;28;20278;-75
2022/04/09 05:30:32;;;;;;;8.60;3.07;;;;;;;;;;5035235;28;20231;-75
2022/04/09 05:33:02;;;;;;;9.53;3.43;;;;;;;;;;5036403;28;20203;-75
2022/04/09 05:35:30;;;;;;;8.47;3.23;;;;;;;;;;5036094;28;20199;-76
2022/04/09 05:37:59;;;;;;;7.40;3.07;;;;;;;;;;5036144;28;20289;-75
2022/04/09 05:40:27;;;;;;;10.03;3.40;;;;;;;;;;5034725;28;20240;-76
2022/04/09 05:42:56;;;;;;;8.47;3.17;;;;;;;;;;5035879;28;20208;-75
2022/04/09 05:45:24;;;;;;;9.33;2.67;;;;;;;;;;5025825;28;20204;-75
2022/04/09 05:47:54;;;;;;;5.50;2.80;;;;;;;;;;5023210;28;20228;-75
2022/04/09 05:50:22;;;;;;;5.60;2.83;;;;;;;;;;5030800;28;20278;-75
2022/04/09 05:52:51;;;;;;;8.73;2.60;;;;;;;;;;5017749;28;20200;-74
2022/04/09 05:55:19;;;;;;;6.70;2.80;;;;;;;;;;5032687;28;20253;-75
2022/04/09 05:57:48;;;;;;;6.47;2.87;;;;;;;;;;5036162;28;20595;-74
2022/04/09 06:00:17;;;;;;;7.27;2.90;;;;;;;;;;5035941;28;20212;-74
2022/04/09 06:02:45;;;;;;;6.27;2.53;;;;;;;;;;5032813;28;20202;-74
2022/04/09 06:05:15;;;;;;;8.47;2.67;;;;;;;;;;5018350;28;20211;-74
2022/04/09 06:07:43;;;;;;;9.20;2.77;;;;;;;;;;5020070;28;20269;-75
2022/04/09 06:10:14;;;;;;;9.23;2.93;;;;;;;;;;5034817;28;20594;-75
2022/04/09 06:12:42;;;;;;;10.13;3.20;;;;;;;;;;5035080;28;20228;-76
2022/04/09 06:15:11;;;;;;;11.03;2.73;;;;;;;;;;5033707;28;20241;-76
2022/04/09 06:17:40;;;;;;;6.97;3.10;;;;;;;;;;5030070;28;20224;-76
2022/04/09 06:20:09;;;;;;;6.20;2.40;;;;;;;;;;5027212;28;20189;-75
2022/04/09 06:22:40;;;;;;;8.13;2.63;;;;;;;;;;5033457;28;20218;-76
2022/04/09 06:25:09;;;;;;;9.93;2.13;;;;;;;;;;5034042;28;20259;-75
2022/04/09 06:27:41;;;;;;;9.63;2.60;;;;;;;;;;5027454;28;20232;-75
2022/04/09 06:30:10;;;;;;;6.93;2.23;;;;;;;;;;5029147;28;20226;-77
2022/04/09 06:32:38;;;;;;;5.10;2.13;;;;;;;;;;5017918;28;20210;-75
2022/04/09 06:35:07;;;;;;;8.90;2.60;;;;;;;;;;5023408;28;20202;-75
2022/04/09 06:37:38;;;;;;;6.33;2.40;;;;;;;;;;5029941;28;20234;-75
2022/04/09 06:40:10;;;;;;;4.30;1.93;;;;;;;;;;5026890;28;20229;-75
2022/04/09 06:42:38;;;;;;;6.20;2.57;;;;;;;;;;5023989;28;20207;-75
2022/04/09 06:45:08;;;;;;;7.93;2.80;;;;;;;;;;5022734;28;20254;-74
2022/04/09 06:47:38;;;;;;;6.97;2.50;;;;;;;;;;5018337;28;20222;-74
2022/04/09 06:50:07;;;;;;;5.60;2.50;;;;;;;;;;5024701;28;20659;-75
2022/04/09 06:52:36;;;;;;;8.10;2.60;;;;;;;;;;5017496;28;20204;-75
2022/04/09 06:55:04;;;;;;;8.93;2.80;;;;;;;;;;5023982;28;20216;-75
2022/04/09 06:57:35;;;;;;;7.17;2.40;;;;;;;;;;5024932;28;20235;-75
2022/04/09 07:00:05;;;;;;;8.73;2.37;;;;;;;;;;5034430;28;20210;-75
2022/04/09 07:02:33;;;;;;;7.77;2.50;;;;;;;;;;5025314;28;20225;-74
2022/04/09 07:05:04;;;;;;;8.37;2.50;;;;;;;;;;5029164;28;20218;-74
2022/04/09 07:07:33;;;;;;;6.77;2.40;;;;;;;;;;5029773;28;20224;-74
2022/04/09 07:10:05;;;;;;;6.43;2.07;;;;;;;;;;5019927;28;20677;-74
2022/04/09 07:12:35;;;;;;;4.23;1.83;;;;;;;;;;5032303;28;20294;-75
2022/04/09 07:15:03;;;;;;;7.17;2.03;;;;;;;;;;5031829;28;20205;-75
2022/04/09 07:17:32;;;;;;;7.00;2.27;;;;;;;;;;5030430;28;20228;-74
2022/04/09 07:20:00;;;;;;;5.23;2.10;;;;;;;;;;5028617;28;20679;-74
2022/04/09 07:22:29;;;;;;;8.70;1.97;;;;;;;;;;5019918;28;20200;-76
2022/04/09 07:24:57;;;;;;;5.33;1.90;;;;;;;;;;5033282;28;20207;-74
2022/04/09 07:27:36;;;;;;;7.43;2.20;;;;;;;;;;5030234;28;20227;-74
2022/04/09 07:30:06;;;;;;;5.10;1.90;;;;;;;;;;5034089;28;20222;-74
2022/04/09 07:32:35;;;;;;;8.37;2.27;;;;;;;;;;5031829;28;20204;-74
2022/04/09 07:35:04;;;;;;;6.73;2.23;;;;;;;;;;5027372;28;20210;-73
2022/04/09 07:37:32;;;;;;;6.13;2.30;;;;;;;;;;5021324;28;20228;-74
2022/04/09 07:40:01;;;;;;;5.43;1.90;;;;;;;;;;5033272;28;20192;-74
2022/04/09 07:42:29;;;;;;;6.47;2.10;;;;;;;;;;5027213;28;20196;-74
2022/04/09 07:44:59;;;;;;;4.77;2.13;;;;;;;;;;5015970;28;20200;-74
2022/04/09 07:47:27;;;;;;;4.50;2.37;;;;;;;;;;5027584;28;20641;-74
2022/04/09 07:49:56;;;;;;;4.40;1.70;;;;;;;;;;5030888;28;20270;-74
2022/04/09 07:52:24;;;;;;;3.37;1.83;;;;;;;;;;5015539;28;20247;-74
2022/04/09 07:54:52;;;;;;;4.80;1.97;;;;;;;;;;5026322;28;20219;-74
2022/04/09 07:57:21;;;;;;;5.13;1.90;;;;;;;;;;5031497;28;20227;-74
2022/04/09 07:59:49;;;;;;;6.40;2.20;;;;;;;;;;5030778;28;20207;-74
2022/04/09 08:02:19;;;;;;;11.70;1.87;;;;;;;;;;5024452;28;20195;-76
2022/04/09 08:04:47;;;;;;;4.97;2.10;;;;;;;;;;5028135;28;20859;-75
2022/04/09 08:07:16;;;;;;;4.60;1.70;;;;;;;;;;5026573;28;20231;-75
2022/04/09 08:09:44;;;;;;;10.00;2.53;;;;;;;;;;5030602;28;20204;-75
2022/04/09 08:12:13;;;;;;;4.20;1.80;;;;;;;;;;5028917;28;20207;-74
2022/04/09 08:14:41;;;;;;;5.27;1.87;;;;;;;;;;5032187;28;20261;-75
2022/04/09 08:17:10;;;;;;;5.97;1.80;;;;;;;;;;5025390;28;20274;-74
2022/04/09 08:19:40;;;;;;;6.93;1.93;;;;;;;;;;5027833;28;20208;-74
2022/04/09 08:22:09;;;;;;;6.43;1.67;;;;;;;;;;5026655;28;20192;-74
2022/04/09 08:24:39;;;;;;;5.80;1.67;;;;;;;;;;5031173;28;20274;-73
2022/04/09 08:27:08;;;;;;;3.70;2.03;;;;;;;;;;5026462;28;20223;-74
2022/04/09 08:29:37;;;;;;;7.33;1.90;;;;;;;;;;5031023;28;20261;-74
2022/04/09 08:32:05;;;;;;;5.70;1.47;;;;;;;;;;5023130;28;20217;-74
2022/04/09 08:34:35;;;;;;;4.90;1.70;;;;;;;;;;5019113;28;20205;-74
2022/04/09 08:37:06;;;;;;;4.60;1.60;;;;;;;;;;5028640;28;20223;-73
2022/04/09 08:39:35;;;;;;;5.27;1.70;;;;;;;;;;5026283;28;20235;-75
2022/04/09 08:42:04;;;;;;;4.20;1.40;;;;;;;;;;5025298;28;20680;-74
2022/04/09 08:44:33;;;;;;;4.93;1.47;;;;;;;;;;5019802;28;20321;-73
2022/04/09 08:47:02;;;;;;;4.97;1.57;;;;;;;;;;5025832;28;20251;-73
2022/04/09 08:49:31;;;;;;;4.67;1.63;;;;;;;;;;5022178;28;20583;-74
2022/04/09 08:52:00;;;;;;;4.60;1.70;;;;;;;;;;5026671;28;20319;-74
2022/04/09 08:54:31;;;;;;;5.23;1.60;;;;;;;;;;5021579;28;20594;-74
2022/04/09 08:56:59;;;;;;;7.10;1.70;;;;;;;;;;5023112;28;20278;-73
2022/04/09 08:59:28;;;;;;;3.30;1.50;;;;;;;;;;5024992;28;20250;-73
2022/04/09 09:01:56;;;;;;;4.80;1.53;;;;;;;;;;5017334;28;20663;-74
2022/04/09 09:04:25;;;;;;;8.50;2.00;;;;;;;;;;5020164;28;20299;-74
2022/04/09 09:06:54;;;;;;;3.67;1.80;;;;;;;;;;5023059;28;20219;-74
2022/04/09 09:09:27;;;;;;;6.60;1.60;;;;;;;;;;5023734;28;20200;-74
2022/04/09 09:11:57;;;;;;;6.80;1.87;;;;;;;;;;5024747;28;21004;-74
2022/04/09 09:14:26;;;;;;;4.37;1.60;;;;;;;;;;5021416;28;20204;-75
2022/04/09 09:16:55;;;;;;;3.80;1.60;;;;;;;;;;5023858;28;20223;-75
2022/04/09 09:19:50;;;;;;;5.17;1.70;;;;;;;;;;5032882;28;20211;-75
2022/04/09 09:22:20;;;;;;;4.43;1.80;;;;;;;;;;5026982;28;20195;-75
2022/04/09 09:25:02;;;;;;;4.10;1.50;;;;;;;;;;5031203;28;20670;-76
2022/04/09 09:27:36;;;;;;;3.10;1.73;;;;;;;;;;5023754;28;20231;-76
2022/04/09 09:30:05;;;;;;;2.43;1.20;;;;;;;;;;5026503;28;20214;-77
2022/04/09 09:32:34;;;;;;;3.23;1.50;;;;;;;;;;5024810;28;20239;-76
2022/04/09 09:35:12;;;;;;;2.40;1.20;;;;;;;;;;5026116;28;20246;-75
2022/04/09 09:37:40;;;;;;;4.43;1.30;;;;;;;;;;5027951;28;20230;-76
2022/04/09 09:40:09;;;;;;;3.10;1.50;;;;;;;;;;5024957;28;20271;-77
2022/04/09 09:42:39;;;;;;;3.87;1.60;;;;;;;;;;5023139;28;20204;-78
2022/04/09 09:45:09;;;;;;;2.83;1.70;;;;;;;;;;5021438;28;20581;-76
2022/04/09 09:47:37;;;;;;;3.03;1.67;;;;;;;;;;5024752;28;20717;-75
2022/04/09 09:50:06;;;;;;;4.10;1.60;;;;;;;;;;5024846;28;20212;-76
2022/04/09 09:52:36;;;;;;;3.17;1.70;;;;;;;;;;5026000;28;20219;-77
2022/04/09 09:55:10;;;;;;;5.60;1.97;;;;;;;;;;5019137;28;20205;-76
2022/04/09 09:57:41;;;;;;;4.87;1.70;;;;;;;;;;5022597;28;20314;-76
2022/04/09 10:00:11;;;;;;;8.97;2.40;;;;;;;;;;5018176;28;20211;-77
2022/04/09 10:02:40;;;;;;;5.50;2.00;;;;;;;;;;5024371;28;20253;-75
2022/04/09 10:05:12;;;;;;;4.67;1.97;;;;;;;;;;5027426;28;20302;-75
2022/04/09 10:07:42;;;;;;;4.37;2.20;;;;;;;;;;5027819;28;20230;-76
2022/04/09 10:10:11;;;;;;;5.00;1.67;;;;;;;;;;5022917;28;20690;-75
2022/04/09 10:12:45;;;;;;;5.47;1.83;;;;;;;;;;5035404;28;20286;-75
2022/04/09 10:15:14;;;;;;;6.83;3.17;;;;;;;;;;5024760;28;20267;-74
2022/04/09 10:17:43;;;;;;;4.30;1.93;;;;;;;;;;5033206;28;20227;-75
2022/04/09 10:20:12;;;;;;;20.33;9.80;;;;;;;;;;5026368;28;20200;-74
2022/04/09 10:22:41;;;;;;;17.03;8.93;;;;;;;;;;5027467;28;20205;-75
2022/04/09 10:25:10;;;;;;;4.30;2.13;;;;;;;;;;5027275;28;20215;-74
2022/04/09 10:27:40;;;;;;;16.60;9.07;;;;;;;;;;5021006;28;20224;-74
2022/04/09 10:30:24;;;;;;;14.20;9.27;;;;;;;;;;5027284;28;20204;-74
2022/04/09 10:32:55;;;;;;;3.37;1.50;;;;;;;;;;5026902;28;20216;-74
2022/04/09 10:35:24;;;;;;;3.80;1.10;;;;;;;;;;5024174;28;20204;-76
2022/04/09 10:38:16;;;;;;;2.97;1.20;;;;;;;;;;5027594;28;20227;-76
2022/04/09 10:41:03;;;;;;;2.87;1.00;;;;;;;;;;5034459;28;20187;-75
2022/04/09 10:43:39;;;;;;;1.87;1.07;;;;;;;;;;5033929;28;20215;-75
2022/04/09 10:46:21;;;;;;;2.43;1.50;;;;;;;;;;5026352;28;20686;-74
2022/04/09 10:48:50;;;;;;;2.60;1.70;;;;;;;;;;5022332;28;20200;-75
2022/04/09 10:51:19;;;;;;;2.73;1.80;;;;;;;;;;5027230;28;20216;-75
2022/04/09 10:53:48;;;;;;;4.53;2.20;;;;;;;;;;5029775;28;20212;-76
2022/04/09 10:56:20;;;;;;;4.13;2.70;;;;;;;;;;5028886;28;20207;-75
2022/04/09 10:59:02;;;;;;;15.63;7.83;;;;;;;;;;5022466;28;20207;-75
2022/04/09 11:01:53;;;;;;;9.87;4.10;;;;;;;;;;5024436;28;20207;-75
2022/04/09 11:04:40;;;;;;;5.63;2.70;;;;;;;;;;5025065;28;20210;-75
2022/04/09 11:07:08;;;;;;;17.13;8.57;;;;;;;;;;5027400;28;20224;-75
2022/04/09 11:09:44;;;;;;;18.93;7.40;;;;;;;;;;5025919;28;20211;-75
2022/04/09 11:12:12;;;;;;;12.20;4.60;;;;;;;;;;5028922;28;20638;-75
2022/04/09 11:14:45;;;;;;;13.80;6.90;;;;;;;;;;5028002;28;20234;-74
2022/04/09 11:17:34;;;;;;;7.83;3.57;;;;;;;;;;5033321;28;20234;-76
2022/04/09 11:20:05;;;;;;;1.53;0.70;;;;;;;;;;5023540;28;20664;-75
2022/04/09 11:22:35;;;;;;;2.67;0.80;;;;;;;;;;5029292;28;20200;-75
2022/04/09 11:25:04;;;;;;;1.10;0.80;;;;;;;;;;5022274;28;20258;-77
2022/04/09 11:27:34;;;;;;;1.47;0.80;;;;;;;;;;5032691;28;20227;-77
2022/04/09 11:30:03;;;;;;;1.20;0.60;;;;;;;;;;5026070;28;20203;-78
2022/04/09 11:32:35;;;;;;;0.90;0.70;;;;;;;;;;5031568;28;20695;-77
2022/04/09 11:35:08;;;;;;;2.40;1.00;;;;;;;;;;5030432;28;20605;-78
2022/04/09 11:37:40;;;;;;;4.47;1.10;;;;;;;;;;5031704;28;20224;-76
2022/04/09 11:40:10;;;;;;;3.13;1.00;;;;;;;;;;5029814;28;20246;-73
2022/04/09 11:42:45;;;;;;;4.03;1.30;;;;;;;;;;5022320;28;20208;-76
2022/04/09 11:45:18;;;;;;;3.03;1.50;;;;;;;;;;5026811;28;20195;-76
2022/04/09 11:47:47;;;;;;;3.07;1.80;;;;;;;;;;5030844;28;20690;-77
2022/04/09 11:50:18;;;;;;;4.37;1.37;;;;;;;;;;5029900;28;20210;-76
2022/04/09 11:52:46;;;;;;;0.97;0.80;;;;;;;;;;5030163;28;20262;-76
2022/04/09 11:55:15;;;;;;;3.83;1.20;;;;;;;;;;5033150;28;20253;-76
2022/04/09 11:57:48;;;;;;;2.03;0.93;;;;;;;;;;5029912;28;20232;-75
2022/04/09 12:00:17;;;;;;;1.23;0.67;;;;;;;;;;5026690;28;20200;-74
2022/04/09 12:02:45;;;;;;;2.73;0.70;;;;;;;;;;5020915;28;20200;-76
2022/04/09 12:05:14;;;;;;;1.87;0.80;;;;;;;;;;5027276;28;20554;-75
2022/04/09 12:07:45;;;;;;;1.80;0.80;;;;;;;;;;5018118;28;20230;-74
2022/04/09 12:10:23;;;;;;;0.47;0.47;;;;;;;;;;5023763;28;20208;-74
2022/04/09 12:12:56;;;;;;;0.80;0.40;;;;;;;;;;5022254;28;20265;-73
2022/04/09 12:15:28;;;;;;;2.70;0.80;;;;;;;;;;5032475;28;20203;-74
2022/04/09 12:17:57;;;;;;;0.40;0.40;;;;;;;;;;5032898;28;20223;-74
2022/04/09 12:20:35;;;;;;;1.47;0.63;;;;;;;;;;5033573;28;20212;-73
2022/04/09 12:23:07;;;;;;;1.63;0.80;;;;;;;;;;5022284;28;20208;-74
2022/04/09 12:25:39;;;;;;;0.70;0.40;;;;;;;;;;5029101;28;20215;-73
2022/04/09 12:28:20;;;;;;;10.53;5.00;;;;;;;;;;5031254;28;20235;-73
2022/04/09 12:30:49;;;;;;;3.07;0.70;;;;;;;;;;5026189;28;20199;-74
2022/04/09 12:33:18;;;;;;;1.60;0.60;;;;;;;;;;5030482;28;20223;-73
2022/04/09 12:35:46;;;;;;;3.37;1.13;;;;;;;;;;5029792;28;20631;-74
2022/04/09 12:38:30;;;;;;;3.07;0.93;;;;;;;;;;5030904;28;20220;-74
2022/04/09 12:41:01;;;;;;;3.70;0.90;;;;;;;;;;5016250;28;20201;-73
2022/04/09 12:43:34;;;;;;;3.30;1.07;;;;;;;;;;5032639;28;20196;-75
2022/04/09 12:46:04;;;;;;;2.03;0.80;;;;;;;;;;5024620;28;20258;-74
2022/04/09 12:48:40;;;;;;;1.60;0.70;;;;;;;;;;5020310;28;20307;-75
2022/04/09 12:51:09;;;;;;;2.30;0.87;;;;;;;;;;5028836;28;20284;-75
2022/04/09 12:53:38;;;;;;;2.33;0.63;;;;;;;;;;5032755;28;20678;-74
2022/04/09 12:56:09;;;;;;;1.90;0.70;;;;;;;;;;5029744;28;20246;-73
2022/04/09 12:58:38;;;;;;;1.23;0.60;;;;;;;;;;5021546;28;20197;-74
2022/04/09 13:01:07;;;;;;;1.83;0.90;;;;;;;;;;5041475;28;20262;-75
2022/04/09 13:03:36;;;;;;;1.90;1.00;;;;;;;;;;5028327;28;20666;-74
2022/04/09 13:06:06;;;;;;;2.63;1.00;;;;;;;;;;5032301;28;20207;-74
2022/04/09 13:08:34;;;;;;;2.37;0.97;;;;;;;;;;5030042;28;20219;-74
2022/04/09 13:11:03;;;;;;;2.23;1.00;;;;;;;;;;5032788;28;20217;-73
2022/04/09 13:13:33;;;;;;;3.10;1.00;;;;;;;;;;5031040;28;20215;-74
2022/04/09 13:16:01;;;;;;;2.50;0.90;;;;;;;;;;5021672;28;20212;-73
2022/04/09 13:18:30;;;;;;;3.43;1.17;;;;;;;;;;5022170;28;20247;-75
2022/04/09 13:20:58;;;;;;;3.60;1.20;;;;;;;;;;5032496;28;20235;-73
2022/04/09 13:23:27;;;;;;;2.40;1.23;;;;;;;;;;5031145;28;20218;-73
2022/04/09 13:25:55;;;;;;;3.00;1.70;;;;;;;;;;5029083;28;20212;-74
2022/04/09 13:28:27;;;;;;;4.63;1.30;;;;;;;;;;5032413;28;20230;-73
2022/04/09 13:30:58;;;;;;;3.27;1.60;;;;;;;;;;5022315;28;20196;-74
2022/04/09 13:33:27;;;;;;;4.87;1.60;;;;;;;;;;5014882;28;20231;-73
2022/04/09 13:35:55;;;;;;;5.73;1.47;;;;;;;;;;5039853;28;20272;-73
2022/04/09 13:38:24;;;;;;;1.97;1.00;;;;;;;;;;5019646;28;20227;-74
2022/04/09 13:40:52;;;;;;;4.30;1.30;;;;;;;;;;4671899;28;10001286;-73
2022/04/09 13:43:20;;;;;;;2.93;1.20;;;;;;;;;;5021449;28;20204;-74
2022/04/09 13:45:49;;;;;;;4.57;1.30;;;;;;;;;;5023648;28;20203;-73
2022/04/09 13:48:20;;;;;;;5.57;1.57;;;;;;;;;;5036615;28;20226;-74
2022/04/09 13:50:48;;;;;;;4.03;1.20;;;;;;;;;;5032483;28;20568;-73
2022/04/09 13:53:17;;;;;;;4.63;1.20;;;;;;;;;;5021515;28;20770;-73
2022/04/09 13:55:45;;;;;;;3.80;1.27;;;;;;;;;;5023631;28;20207;-72
2022/04/09 13:58:15;;;;;;;3.93;1.40;;;;;;;;;;5023649;28;20224;-73
2022/04/09 14:00:43;;;;;;;3.07;1.40;;;;;;;;;;5028759;28;20207;-73
2022/04/09 14:03:12;;;;;;;2.20;1.10;;;;;;;;;;5033419;28;20200;-74
2022/04/09 14:05:41;;;;;;;4.70;1.50;;;;;;;;;;5035106;28;20204;-72
2022/04/09 14:08:10;;;;;;;3.83;1.50;;;;;;;;;;5035411;28;20693;-73
2022/04/09 14:10:38;;;;;;;3.37;1.00;;;;;;;;;;5033302;28;20386;-75
2022/04/09 14:13:07;;;;;;;3.77;1.10;;;;;;;;;;5033393;28;20231;-73
2022/04/09 14:15:35;;;;;;;3.00;1.10;;;;;;;;;;5030544;28;20225;-73
2022/04/09 14:18:04;;;;;;;5.23;1.47;;;;;;;;;;5026363;28;20226;-74
2022/04/09 14:20:32;;;;;;;2.00;1.07;;;;;;;;;;5050351;28;20210;-74
2022/04/09 14:23:08;;;;;;;2.63;1.80;;;;;;;;;;5033884;28;20203;-72
2022/04/09 14:25:38;;;;;;;3.73;1.20;;;;;;;;;;5025464;28;20298;-73
2022/04/09 14:28:08;;;;;;;3.47;1.00;;;;;;;;;;5022006;28;20224;-73
2022/04/09 14:30:37;;;;;;;2.97;1.17;;;;;;;;;;5021609;28;20207;-73
2022/04/09 14:33:07;;;;;;;2.07;1.00;;;;;;;;;;5026214;28;20282;-73
2022/04/09 14:35:36;;;;;;;0.93;0.60;;;;;;;;;;5031136;28;20210;-74
2022/04/09 14:38:06;;;;;;;2.93;0.93;;;;;;;;;;5028873;28;20224;-74
2022/04/09 14:40:34;;;;;;;1.87;0.90;;;;;;;;;;5018227;28;20211;-73
2022/04/09 14:43:04;;;;;;;1.60;0.90;;;;;;;;;;5026784;28;20203;-74
2022/04/09 14:45:32;;;;;;;1.20;0.67;;;;;;;;;;5025624;28;20211;-75
2022/04/09 14:48:01;;;;;;;1.97;0.90;;;;;;;;;;5029742;28;20232;-73
2022/04/09 14:50:29;;;;;;;2.23;0.90;;;;;;;;;;5027231;28;20215;-74
2022/04/09 14:52:59;;;;;;;2.40;1.00;;;;;;;;;;5021012;28;20303;-74
2022/04/09 14:55:29;;;;;;;2.73;0.93;;;;;;;;;;5031085;28;20227;-73
2022/04/09 14:57:58;;;;;;;3.47;1.20;;;;;;;;;;5027334;28;20266;-74